Des Peres, Missouri
Current Conditions -  °F | °C
As of 10:51 AM on Thursday 23 Oct 2014 (Local Time) from KSTL Reporting Station
Broken Clouds Broken Clouds  
Wind Chill: 60°   Ceiling: 20000
Heat Index: 60°   Visibility: 10mi
Dew Point: 42°   Wind: 12mph
Humidity: 51%   Direction: 200°SSW
Pressure: 30.21"   Gusts: NA
Location:  38.5796°N, 90.4197°W
Report Text: KSTL 231551Z 20010KT 10SM SCT150 BKN200 16/06 A3021 RMK AO2 SLP230 VIRGA S T01560056
Loading
Personal Weather Stations






























Interactive Weather Map New forecast layout! Learn more

10-Day Weather Forecast

Advertisements
Track Severe Weather on mobile